createdAt,value
2018-11-23T13:32:16.394Z,77.191162
2018-11-23T16:38:56.732Z,82.666016
2018-11-23T16:44:28.268Z,83.184814
2018-11-23T16:48:14.367Z,82.769775
2018-11-23T16:51:44.231Z,82.666016
2018-11-23T16:55:14.205Z,82.562256
2018-11-23T16:58:45.050Z,82.666016
2018-11-23T17:02:14.920Z,82.562256
2018-11-23T17:05:44.784Z,82.562256
2018-11-23T17:09:14.617Z,82.562256
2018-11-23T17:12:44.512Z,82.562256
2018-11-23T17:16:14.374Z,82.562256
2018-11-23T17:19:45.216Z,82.562256
2018-11-23T17:23:15.087Z,82.562256
2018-11-23T17:26:44.940Z,82.562256
2018-11-23T17:30:14.790Z,82.562256
2018-11-23T17:33:44.692Z,82.562256
2018-11-23T17:37:14.566Z,82.666016
2018-11-23T17:40:44.450Z,82.666016
2018-11-23T17:44:14.322Z,82.666016
2018-11-23T17:47:44.168Z,82.666016
2018-11-23T17:51:14.027Z,82.769775
2018-11-23T17:54:43.879Z,82.769775
2018-11-23T17:58:13.707Z,82.769775
2018-11-23T18:01:43.588Z,82.769775
2018-11-23T18:05:13.435Z,82.873535
2018-11-23T18:08:43.283Z,82.873535
2018-11-23T18:12:13.136Z,82.873535
2018-11-23T18:15:42.994Z,82.836914
2018-11-23T18:19:12.821Z,82.940674
2018-11-23T18:22:42.663Z,82.977295
2018-11-23T18:26:12.516Z,82.940674
2018-11-23T18:29:42.347Z,82.940674
2018-11-23T18:33:12.198Z,83.044434
2018-11-23T18:36:42.047Z,83.044434
2018-11-23T18:40:11.883Z,83.044434
2018-11-23T18:43:41.730Z,83.044434
2018-11-23T18:47:11.715Z,83.044434
2018-11-23T18:50:41.598Z,83.148193
2018-11-23T18:54:11.433Z,83.148193
2018-11-23T18:57:41.278Z,83.148193
2018-11-23T19:01:12.124Z,83.148193
2018-11-23T19:04:41.962Z,83.251953
2018-11-23T19:08:11.820Z,83.251953
2018-11-23T19:11:41.707Z,83.355713
2018-11-23T19:15:11.603Z,83.355713
2018-11-23T19:18:42.426Z,83.355713
2018-11-23T19:22:12.277Z,83.459473
2018-11-23T19:25:42.137Z,83.459473
2018-11-23T19:29:11.973Z,83.459473
2018-11-23T19:32:41.821Z,83.563232
2018-11-23T19:36:11.693Z,83.563232
2018-11-23T19:39:41.532Z,83.666992
2018-11-23T19:43:11.391Z,83.666992
2018-11-23T19:46:41.244Z,83.666992
2018-11-23T19:50:11.082Z,83.666992
2018-11-23T19:53:40.952Z,83.770752
2018-11-23T19:57:11.798Z,83.770752
2018-11-23T20:00:41.701Z,83.770752
2018-11-23T20:04:11.554Z,83.874512
2018-11-23T20:07:41.509Z,83.770752
2018-11-23T20:11:11.377Z,83.874512
2018-11-23T20:14:41.212Z,83.874512
2018-11-23T20:18:11.092Z,83.874512
2018-11-23T20:21:41.640Z,83.874512
2018-11-23T20:25:13.260Z,83.874512
2018-11-23T20:28:43.133Z,83.874512
2018-11-23T20:32:13.016Z,83.874512
2018-11-23T20:35:42.945Z,83.874512
2018-11-23T20:39:12.818Z,83.874512
2018-11-23T20:42:42.670Z,83.978271
2018-11-23T20:46:12.522Z,83.978271
2018-11-23T20:49:45.781Z,83.978271
2018-11-23T20:53:15.175Z,83.978271
2018-11-23T20:56:45.021Z,83.978271
2018-11-23T21:00:14.865Z,83.978271
2018-11-23T21:03:44.785Z,83.978271
2018-11-23T21:07:14.633Z,84.04541
2018-11-23T21:10:44.492Z,84.04541
2018-11-23T21:14:14.335Z,84.04541
2018-11-23T21:17:44.200Z,84.04541
2018-11-23T21:21:14.046Z,84.04541
2018-11-23T21:24:43.882Z,84.04541
2018-11-23T21:28:13.734Z,84.04541
2018-11-23T21:31:43.591Z,84.14917
2018-11-23T21:35:13.436Z,84.14917
2018-11-23T21:38:43.289Z,84.14917
2018-11-23T21:42:13.153Z,84.14917
2018-11-23T21:45:43.022Z,84.14917
2018-11-23T21:49:12.848Z,84.25293
2018-11-23T21:52:42.703Z,84.25293
2018-11-23T21:56:12.546Z,84.25293
2018-11-23T21:59:42.384Z,84.25293
2018-11-23T22:03:12.234Z,84.25293
2018-11-23T22:06:42.084Z,84.25293
2018-11-23T22:10:11.910Z,84.25293
2018-11-23T22:13:41.755Z,84.356689
2018-11-23T22:17:11.612Z,84.25293
2018-11-23T22:20:41.466Z,84.356689
2018-11-23T22:24:11.324Z,84.356689
2018-11-23T22:27:41.172Z,84.356689
2018-11-23T22:31:12.019Z,84.356689
2018-11-23T22:34:41.930Z,84.356689
2018-11-23T22:38:12.754Z,84.356689
2018-11-23T22:41:42.603Z,84.356689
2018-11-23T22:45:12.454Z,84.460449
2018-11-23T22:48:42.292Z,84.460449
2018-11-23T22:52:12.149Z,84.460449
2018-11-23T22:55:42.012Z,84.460449
2018-11-23T22:59:11.847Z,84.460449
2018-11-23T23:02:41.697Z,84.460449
2018-11-23T23:06:11.542Z,84.460449
2018-11-23T23:09:41.411Z,84.460449
2018-11-23T23:13:11.248Z,84.460449
2018-11-23T23:16:41.108Z,84.460449
2018-11-23T23:20:10.943Z,84.564209
2018-11-23T23:23:40.908Z,84.564209
2018-11-23T23:27:10.766Z,84.564209
2018-11-23T23:30:40.620Z,84.564209
2018-11-23T23:34:11.451Z,84.564209
2018-11-23T23:37:41.306Z,84.564209
2018-11-23T23:41:11.151Z,84.564209
2018-11-23T23:44:40.992Z,84.564209
2018-11-23T23:48:10.837Z,84.564209
2018-11-23T23:51:40.700Z,84.564209
2018-11-23T23:55:10.540Z,84.625244
2018-11-23T23:58:40.403Z,84.667969
